sensor_id;sensor_type;location;lat;lon;timestamp;P1;durP1;ratioP1;P2;durP2;ratioP2
20324;SDS011;10320;49.482;11.256;2023-05-07T00:02:00;3.50;;;3.20;;
20324;SDS011;10320;49.482;11.256;2023-05-07T00:04:26;4.90;;;3.50;;
20324;SDS011;10320;49.482;11.256;2023-05-07T00:06:53;3.60;;;3.20;;
20324;SDS011;10320;49.482;11.256;2023-05-07T00:09:20;3.60;;;3.30;;
20324;SDS011;10320;49.482;11.256;2023-05-07T00:11:46;3.40;;;3.20;;
20324;SDS011;10320;49.482;11.256;2023-05-07T00:14:12;3.37;;;3.07;;
20324;SDS011;10320;49.482;11.256;2023-05-07T00:16:38;3.77;;;3.20;;
20324;SDS011;10320;49.482;11.256;2023-05-07T00:19:04;3.63;;;3.20;;
20324;SDS011;10320;49.482;11.256;2023-05-07T00:21:30;3.40;;;3.10;;
20324;SDS011;10320;49.482;11.256;2023-05-07T00:23:56;3.57;;;3.30;;
20324;SDS011;10320;49.482;11.256;2023-05-07T00:26:22;3.40;;;3.10;;
20324;SDS011;10320;49.482;11.256;2023-05-07T00:28:49;3.57;;;3.27;;
20324;SDS011;10320;49.482;11.256;2023-05-07T00:31:15;5.50;;;3.50;;
20324;SDS011;10320;49.482;11.256;2023-05-07T00:33:41;3.60;;;3.23;;
20324;SDS011;10320;49.482;11.256;2023-05-07T00:36:07;3.13;;;2.83;;
20324;SDS011;10320;49.482;11.256;2023-05-07T00:38:33;3.33;;;3.10;;
20324;SDS011;10320;49.482;11.256;2023-05-07T00:40:59;5.30;;;3.30;;
20324;SDS011;10320;49.482;11.256;2023-05-07T00:43:27;3.30;;;3.00;;
20324;SDS011;10320;49.482;11.256;2023-05-07T00:45:53;3.47;;;3.17;;
20324;SDS011;10320;49.482;11.256;2023-05-07T00:48:19;5.90;;;2.97;;
20324;SDS011;10320;49.482;11.256;2023-05-07T00:50:45;3.80;;;3.00;;
20324;SDS011;10320;49.482;11.256;2023-05-07T00:53:12;4.33;;;3.20;;
20324;SDS011;10320;49.482;11.256;2023-05-07T00:55:38;3.30;;;3.00;;
20324;SDS011;10320;49.482;11.256;2023-05-07T00:58:04;3.93;;;3.10;;
20324;SDS011;10320;49.482;11.256;2023-05-07T01:00:30;3.43;;;3.13;;
20324;SDS011;10320;49.482;11.256;2023-05-07T01:02:57;3.40;;;3.10;;
20324;SDS011;10320;49.482;11.256;2023-05-07T01:05:23;3.30;;;3.00;;
20324;SDS011;10320;49.482;11.256;2023-05-07T01:07:50;3.00;;;2.80;;
20324;SDS011;10320;49.482;11.256;2023-05-07T01:10:18;2.90;;;2.70;;
20324;SDS011;10320;49.482;11.256;2023-05-07T01:12:44;4.10;;;3.10;;
20324;SDS011;10320;49.482;11.256;2023-05-07T01:15:10;4.20;;;3.20;;
20324;SDS011;10320;49.482;11.256;2023-05-07T01:17:38;3.63;;;2.93;;
20324;SDS011;10320;49.482;11.256;2023-05-07T01:20:05;3.90;;;3.27;;
20324;SDS011;10320;49.482;11.256;2023-05-07T01:22:32;4.63;;;3.40;;
20324;SDS011;10320;49.482;11.256;2023-05-07T01:24:59;4.10;;;3.40;;
20324;SDS011;10320;49.482;11.256;2023-05-07T01:27:26;3.93;;;3.50;;
20324;SDS011;10320;49.482;11.256;2023-05-07T01:29:52;4.40;;;3.43;;
20324;SDS011;10320;49.482;11.256;2023-05-07T01:32:23;4.40;;;3.73;;
20324;SDS011;10320;49.482;11.256;2023-05-07T01:34:51;3.87;;;3.47;;
20324;SDS011;10320;49.482;11.256;2023-05-07T01:37:18;4.23;;;3.80;;
20324;SDS011;10320;49.482;11.256;2023-05-07T01:39:45;3.40;;;3.10;;
20324;SDS011;10320;49.482;11.256;2023-05-07T01:42:11;3.63;;;3.33;;
20324;SDS011;10320;49.482;11.256;2023-05-07T01:44:37;3.83;;;3.47;;
20324;SDS011;10320;49.482;11.256;2023-05-07T01:47:03;4.10;;;3.80;;
20324;SDS011;10320;49.482;11.256;2023-05-07T01:49:30;4.13;;;3.77;;
20324;SDS011;10320;49.482;11.256;2023-05-07T01:51:56;3.80;;;3.50;;
20324;SDS011;10320;49.482;11.256;2023-05-07T01:54:25;3.70;;;3.40;;
20324;SDS011;10320;49.482;11.256;2023-05-07T01:56:57;3.77;;;3.47;;
20324;SDS011;10320;49.482;11.256;2023-05-07T01:59:23;5.07;;;3.80;;
20324;SDS011;10320;49.482;11.256;2023-05-07T02:01:50;4.37;;;3.97;;
20324;SDS011;10320;49.482;11.256;2023-05-07T02:04:16;4.63;;;4.20;;
20324;SDS011;10320;49.482;11.256;2023-05-07T02:06:42;4.40;;;4.00;;
20324;SDS011;10320;49.482;11.256;2023-05-07T02:09:08;4.70;;;4.20;;
20324;SDS011;10320;49.482;11.256;2023-05-07T02:11:35;4.73;;;4.17;;
20324;SDS011;10320;49.482;11.256;2023-05-07T02:14:01;4.30;;;4.00;;
20324;SDS011;10320;49.482;11.256;2023-05-07T02:16:27;4.77;;;4.37;;
20324;SDS011;10320;49.482;11.256;2023-05-07T02:18:53;4.33;;;3.87;;
20324;SDS011;10320;49.482;11.256;2023-05-07T02:21:19;4.70;;;4.30;;
20324;SDS011;10320;49.482;11.256;2023-05-07T02:23:45;4.70;;;4.30;;
20324;SDS011;10320;49.482;11.256;2023-05-07T02:26:11;4.60;;;4.20;;
20324;SDS011;10320;49.482;11.256;2023-05-07T02:28:37;4.93;;;4.50;;
20324;SDS011;10320;49.482;11.256;2023-05-07T02:31:04;4.93;;;4.43;;
20324;SDS011;10320;49.482;11.256;2023-05-07T02:33:30;5.00;;;4.50;;
20324;SDS011;10320;49.482;11.256;2023-05-07T02:35:56;5.30;;;4.83;;
20324;SDS011;10320;49.482;11.256;2023-05-07T02:38:22;5.70;;;4.97;;
20324;SDS011;10320;49.482;11.256;2023-05-07T02:40:48;5.37;;;4.90;;
20324;SDS011;10320;49.482;11.256;2023-05-07T02:43:14;5.80;;;5.30;;
20324;SDS011;10320;49.482;11.256;2023-05-07T02:45:40;5.67;;;5.17;;
20324;SDS011;10320;49.482;11.256;2023-05-07T02:48:06;6.07;;;5.33;;
20324;SDS011;10320;49.482;11.256;2023-05-07T02:50:32;5.50;;;5.10;;
20324;SDS011;10320;49.482;11.256;2023-05-07T02:52:58;5.83;;;5.33;;
20324;SDS011;10320;49.482;11.256;2023-05-07T02:55:24;6.17;;;5.67;;
20324;SDS011;10320;49.482;11.256;2023-05-07T02:57:50;6.03;;;5.60;;
20324;SDS011;10320;49.482;11.256;2023-05-07T03:00:17;5.73;;;5.23;;
20324;SDS011;10320;49.482;11.256;2023-05-07T03:02:44;6.63;;;6.13;;
20324;SDS011;10320;49.482;11.256;2023-05-07T03:05:10;6.97;;;6.27;;
20324;SDS011;10320;49.482;11.256;2023-05-07T03:07:36;6.93;;;6.10;;
20324;SDS011;10320;49.482;11.256;2023-05-07T03:10:03;6.63;;;6.03;;
20324;SDS011;10320;49.482;11.256;2023-05-07T03:12:30;7.03;;;6.43;;
20324;SDS011;10320;49.482;11.256;2023-05-07T03:14:56;6.80;;;6.20;;
20324;SDS011;10320;49.482;11.256;2023-05-07T03:17:22;7.10;;;6.40;;
20324;SDS011;10320;49.482;11.256;2023-05-07T03:19:48;7.10;;;6.50;;
20324;SDS011;10320;49.482;11.256;2023-05-07T03:22:14;7.47;;;6.87;;
20324;SDS011;10320;49.482;11.256;2023-05-07T03:24:40;7.60;;;6.93;;
20324;SDS011;10320;49.482;11.256;2023-05-07T03:27:06;8.17;;;7.47;;
20324;SDS011;10320;49.482;11.256;2023-05-07T03:29:32;8.27;;;7.53;;
20324;SDS011;10320;49.482;11.256;2023-05-07T03:31:58;7.23;;;6.63;;
20324;SDS011;10320;49.482;11.256;2023-05-07T03:34:24;8.00;;;7.20;;
20324;SDS011;10320;49.482;11.256;2023-05-07T03:36:50;7.47;;;6.77;;
20324;SDS011;10320;49.482;11.256;2023-05-07T03:39:16;7.90;;;7.23;;
20324;SDS011;10320;49.482;11.256;2023-05-07T03:41:42;8.03;;;7.23;;
20324;SDS011;10320;49.482;11.256;2023-05-07T03:44:08;9.60;;;8.67;;
20324;SDS011;10320;49.482;11.256;2023-05-07T03:46:34;8.67;;;7.87;;
20324;SDS011;10320;49.482;11.256;2023-05-07T03:49:00;9.80;;;8.87;;
20324;SDS011;10320;49.482;11.256;2023-05-07T03:51:26;9.83;;;8.17;;
20324;SDS011;10320;49.482;11.256;2023-05-07T03:53:52;8.47;;;7.70;;
20324;SDS011;10320;49.482;11.256;2023-05-07T03:56:19;9.63;;;8.80;;
20324;SDS011;10320;49.482;11.256;2023-05-07T03:58:46;9.53;;;8.53;;
20324;SDS011;10320;49.482;11.256;2023-05-07T04:01:13;9.80;;;8.90;;
20324;SDS011;10320;49.482;11.256;2023-05-07T04:03:42;9.00;;;8.20;;
20324;SDS011;10320;49.482;11.256;2023-05-07T04:06:08;9.13;;;8.27;;
20324;SDS011;10320;49.482;11.256;2023-05-07T04:08:35;9.00;;;8.23;;
20324;SDS011;10320;49.482;11.256;2023-05-07T04:11:01;8.67;;;7.87;;
20324;SDS011;10320;49.482;11.256;2023-05-07T04:13:27;9.03;;;8.13;;
20324;SDS011;10320;49.482;11.256;2023-05-07T04:15:54;9.17;;;8.20;;
20324;SDS011;10320;49.482;11.256;2023-05-07T04:18:20;8.30;;;7.60;;
20324;SDS011;10320;49.482;11.256;2023-05-07T04:20:49;8.70;;;8.00;;
20324;SDS011;10320;49.482;11.256;2023-05-07T04:23:15;7.43;;;6.83;;
20324;SDS011;10320;49.482;11.256;2023-05-07T04:25:41;8.10;;;7.30;;
20324;SDS011;10320;49.482;11.256;2023-05-07T04:28:07;8.53;;;7.77;;
20324;SDS011;10320;49.482;11.256;2023-05-07T04:30:33;8.93;;;8.13;;
20324;SDS011;10320;49.482;11.256;2023-05-07T04:32:59;9.20;;;8.40;;
20324;SDS011;10320;49.482;11.256;2023-05-07T04:35:25;10.53;;;8.20;;
20324;SDS011;10320;49.482;11.256;2023-05-07T04:37:51;8.80;;;8.00;;
20324;SDS011;10320;49.482;11.256;2023-05-07T04:40:17;8.40;;;7.60;;
20324;SDS011;10320;49.482;11.256;2023-05-07T04:42:44;9.67;;;8.67;;
20324;SDS011;10320;49.482;11.256;2023-05-07T04:45:10;9.57;;;8.60;;
20324;SDS011;10320;49.482;11.256;2023-05-07T04:47:37;8.37;;;7.67;;
20324;SDS011;10320;49.482;11.256;2023-05-07T04:50:04;9.67;;;8.77;;
20324;SDS011;10320;49.482;11.256;2023-05-07T04:52:30;9.43;;;8.63;;
20324;SDS011;10320;49.482;11.256;2023-05-07T04:54:56;9.57;;;8.70;;
20324;SDS011;10320;49.482;11.256;2023-05-07T04:57:22;9.50;;;8.60;;
20324;SDS011;10320;49.482;11.256;2023-05-07T04:59:48;9.33;;;8.47;;
20324;SDS011;10320;49.482;11.256;2023-05-07T05:02:14;9.00;;;8.03;;
20324;SDS011;10320;49.482;11.256;2023-05-07T05:04:39;10.00;;;9.10;;
20324;SDS011;10320;49.482;11.256;2023-05-07T05:07:05;9.20;;;8.40;;
20324;SDS011;10320;49.482;11.256;2023-05-07T05:09:31;9.40;;;8.60;;
20324;SDS011;10320;49.482;11.256;2023-05-07T05:11:56;10.13;;;8.40;;
20324;SDS011;10320;49.482;11.256;2023-05-07T05:14:22;8.93;;;8.13;;
20324;SDS011;10320;49.482;11.256;2023-05-07T05:16:48;9.60;;;8.60;;
20324;SDS011;10320;49.482;11.256;2023-05-07T05:19:13;9.00;;;8.20;;
20324;SDS011;10320;49.482;11.256;2023-05-07T05:21:39;9.73;;;8.83;;
20324;SDS011;10320;49.482;11.256;2023-05-07T05:24:05;9.30;;;8.40;;
20324;SDS011;10320;49.482;11.256;2023-05-07T05:26:30;9.97;;;9.03;;
20324;SDS011;10320;49.482;11.256;2023-05-07T05:28:56;9.60;;;8.77;;
20324;SDS011;10320;49.482;11.256;2023-05-07T05:31:22;9.77;;;8.87;;
20324;SDS011;10320;49.482;11.256;2023-05-07T05:33:47;9.03;;;8.23;;
20324;SDS011;10320;49.482;11.256;2023-05-07T05:36:13;9.60;;;8.80;;
20324;SDS011;10320;49.482;11.256;2023-05-07T05:38:39;10.17;;;9.27;;
20324;SDS011;10320;49.482;11.256;2023-05-07T05:41:05;9.33;;;8.53;;
20324;SDS011;10320;49.482;11.256;2023-05-07T05:43:31;9.10;;;8.30;;
20324;SDS011;10320;49.482;11.256;2023-05-07T05:45:56;9.67;;;8.67;;
20324;SDS011;10320;49.482;11.256;2023-05-07T05:48:22;9.20;;;8.30;;
20324;SDS011;10320;49.482;11.256;2023-05-07T05:50:48;9.23;;;8.37;;
20324;SDS011;10320;49.482;11.256;2023-05-07T05:53:14;8.77;;;7.97;;
20324;SDS011;10320;49.482;11.256;2023-05-07T05:55:41;8.90;;;7.97;;
20324;SDS011;10320;49.482;11.256;2023-05-07T05:58:07;9.70;;;8.47;;
20324;SDS011;10320;49.482;11.256;2023-05-07T06:00:33;8.73;;;7.93;;
20324;SDS011;10320;49.482;11.256;2023-05-07T06:02:59;9.27;;;8.30;;
20324;SDS011;10320;49.482;11.256;2023-05-07T06:05:25;9.57;;;8.23;;
20324;SDS011;10320;49.482;11.256;2023-05-07T06:07:50;8.63;;;7.83;;
20324;SDS011;10320;49.482;11.256;2023-05-07T06:10:16;8.60;;;7.80;;
20324;SDS011;10320;49.482;11.256;2023-05-07T06:12:42;8.93;;;8.13;;
20324;SDS011;10320;49.482;11.256;2023-05-07T06:15:07;8.63;;;7.83;;
20324;SDS011;10320;49.482;11.256;2023-05-07T06:17:33;8.17;;;7.47;;
20324;SDS011;10320;49.482;11.256;2023-05-07T06:19:59;8.20;;;7.40;;
20324;SDS011;10320;49.482;11.256;2023-05-07T06:22:25;8.90;;;8.10;;
20324;SDS011;10320;49.482;11.256;2023-05-07T06:24:50;8.90;;;7.97;;
20324;SDS011;10320;49.482;11.256;2023-05-07T06:27:16;8.97;;;7.83;;
20324;SDS011;10320;49.482;11.256;2023-05-07T06:29:42;9.07;;;8.17;;
20324;SDS011;10320;49.482;11.256;2023-05-07T06:32:11;9.43;;;8.50;;
20324;SDS011;10320;49.482;11.256;2023-05-07T06:34:38;8.57;;;7.70;;
20324;SDS011;10320;49.482;11.256;2023-05-07T06:37:04;8.90;;;8.10;;
20324;SDS011;10320;49.482;11.256;2023-05-07T06:39:30;8.53;;;7.83;;
20324;SDS011;10320;49.482;11.256;2023-05-07T06:41:56;8.23;;;7.43;;
20324;SDS011;10320;49.482;11.256;2023-05-07T06:44:22;8.53;;;7.83;;
20324;SDS011;10320;49.482;11.256;2023-05-07T06:46:48;8.13;;;7.43;;
20324;SDS011;10320;49.482;11.256;2023-05-07T06:49:14;8.60;;;7.73;;
20324;SDS011;10320;49.482;11.256;2023-05-07T06:51:40;9.07;;;8.20;;
20324;SDS011;10320;49.482;11.256;2023-05-07T06:54:05;9.17;;;8.37;;
20324;SDS011;10320;49.482;11.256;2023-05-07T06:56:34;8.30;;;7.60;;
20324;SDS011;10320;49.482;11.256;2023-05-07T06:59:01;8.20;;;7.43;;
20324;SDS011;10320;49.482;11.256;2023-05-07T07:01:27;8.20;;;7.40;;
20324;SDS011;10320;49.482;11.256;2023-05-07T07:03:53;8.67;;;7.87;;
20324;SDS011;10320;49.482;11.256;2023-05-07T07:06:19;8.80;;;7.90;;
20324;SDS011;10320;49.482;11.256;2023-05-07T07:08:45;7.87;;;7.17;;
20324;SDS011;10320;49.482;11.256;2023-05-07T07:11:11;8.70;;;7.90;;
20324;SDS011;10320;49.482;11.256;2023-05-07T07:13:36;8.70;;;7.87;;
20324;SDS011;10320;49.482;11.256;2023-05-07T07:16:02;8.33;;;7.63;;
20324;SDS011;10320;49.482;11.256;2023-05-07T07:18:28;8.40;;;7.60;;
20324;SDS011;10320;49.482;11.256;2023-05-07T07:20:54;7.83;;;7.13;;
20324;SDS011;10320;49.482;11.256;2023-05-07T07:23:20;8.40;;;7.70;;
20324;SDS011;10320;49.482;11.256;2023-05-07T07:25:46;8.03;;;7.37;;
20324;SDS011;10320;49.482;11.256;2023-05-07T07:28:14;8.30;;;7.60;;
20324;SDS011;10320;49.482;11.256;2023-05-07T07:30:40;8.40;;;7.70;;
20324;SDS011;10320;49.482;11.256;2023-05-07T07:33:06;8.82;;;7.78;;
20324;SDS011;10320;49.482;11.256;2023-05-07T07:35:32;8.30;;;7.50;;
20324;SDS011;10320;49.482;11.256;2023-05-07T07:37:57;7.88;;;7.25;;
20324;SDS011;10320;49.482;11.256;2023-05-07T07:40:26;7.25;;;6.55;;
20324;SDS011;10320;49.482;11.256;2023-05-07T07:42:52;7.38;;;6.78;;
20324;SDS011;10320;49.482;11.256;2023-05-07T07:45:19;7.90;;;7.20;;
20324;SDS011;10320;49.482;11.256;2023-05-07T07:47:45;7.90;;;7.30;;
20324;SDS011;10320;49.482;11.256;2023-05-07T07:50:11;8.10;;;7.30;;
20324;SDS011;10320;49.482;11.256;2023-05-07T07:52:36;7.38;;;6.68;;
20324;SDS011;10320;49.482;11.256;2023-05-07T07:55:02;8.18;;;7.47;;
20324;SDS011;10320;49.482;11.256;2023-05-07T07:57:29;8.13;;;7.43;;
20324;SDS011;10320;49.482;11.256;2023-05-07T07:59:55;7.75;;;6.93;;
20324;SDS011;10320;49.482;11.256;2023-05-07T08:02:21;7.47;;;6.78;;
20324;SDS011;10320;49.482;11.256;2023-05-07T08:04:46;7.35;;;6.75;;
20324;SDS011;10320;49.482;11.256;2023-05-07T08:07:12;7.13;;;6.53;;
20324;SDS011;10320;49.482;11.256;2023-05-07T08:09:39;8.10;;;7.40;;
20324;SDS011;10320;49.482;11.256;2023-05-07T08:12:06;7.70;;;7.07;;
20324;SDS011;10320;49.482;11.256;2023-05-07T08:14:32;7.80;;;6.90;;
20324;SDS011;10320;49.482;11.256;2023-05-07T08:16:58;8.05;;;7.35;;
20324;SDS011;10320;49.482;11.256;2023-05-07T08:19:24;7.45;;;6.85;;
20324;SDS011;10320;49.482;11.256;2023-05-07T08:21:49;7.43;;;6.75;;
20324;SDS011;10320;49.482;11.256;2023-05-07T08:24:15;7.53;;;6.82;;
20324;SDS011;10320;49.482;11.256;2023-05-07T08:26:42;7.60;;;6.90;;
20324;SDS011;10320;49.482;11.256;2023-05-07T08:29:08;6.95;;;6.45;;
20324;SDS011;10320;49.482;11.256;2023-05-07T08:31:34;7.55;;;6.85;;
20324;SDS011;10320;49.482;11.256;2023-05-07T08:34:00;7.10;;;6.50;;
20324;SDS011;10320;49.482;11.256;2023-05-07T08:36:26;7.63;;;6.93;;
20324;SDS011;10320;49.482;11.256;2023-05-07T08:38:52;7.60;;;6.75;;
20324;SDS011;10320;49.482;11.256;2023-05-07T08:41:18;7.75;;;7.05;;
20324;SDS011;10320;49.482;11.256;2023-05-07T08:43:47;7.65;;;6.85;;
20324;SDS011;10320;49.482;11.256;2023-05-07T08:46:18;7.68;;;6.97;;
20324;SDS011;10320;49.482;11.256;2023-05-07T08:48:47;7.32;;;6.78;;
20324;SDS011;10320;49.482;11.256;2023-05-07T08:51:15;7.22;;;6.68;;
20324;SDS011;10320;49.482;11.256;2023-05-07T08:53:42;7.78;;;7.18;;
20324;SDS011;10320;49.482;11.256;2023-05-07T08:56:10;7.35;;;6.78;;
20324;SDS011;10320;49.482;11.256;2023-05-07T08:58:37;8.05;;;7.25;;
20324;SDS011;10320;49.482;11.256;2023-05-07T09:01:04;7.60;;;6.90;;
20324;SDS011;10320;49.482;11.256;2023-05-07T09:03:32;7.47;;;6.78;;
20324;SDS011;10320;49.482;11.256;2023-05-07T09:05:58;7.32;;;6.68;;
20324;SDS011;10320;49.482;11.256;2023-05-07T09:08:25;7.50;;;6.90;;
20324;SDS011;10320;49.482;11.256;2023-05-07T09:10:52;8.32;;;7.00;;
20324;SDS011;10320;49.482;11.256;2023-05-07T09:13:17;7.22;;;6.63;;
20324;SDS011;10320;49.482;11.256;2023-05-07T09:15:43;7.63;;;7.03;;
20324;SDS011;10320;49.482;11.256;2023-05-07T09:18:09;7.40;;;6.72;;
20324;SDS011;10320;49.482;11.256;2023-05-07T09:20:36;7.35;;;6.75;;
20324;SDS011;10320;49.482;11.256;2023-05-07T09:23:02;6.80;;;6.30;;
20324;SDS011;10320;49.482;11.256;2023-05-07T09:25:31;7.07;;;6.47;;
20324;SDS011;10320;49.482;11.256;2023-05-07T09:27:58;6.97;;;6.38;;
20324;SDS011;10320;49.482;11.256;2023-05-07T09:30:28;7.15;;;6.45;;
20324;SDS011;10320;49.482;11.256;2023-05-07T09:32:58;6.68;;;6.07;;
20324;SDS011;10320;49.482;11.256;2023-05-07T09:35:25;6.75;;;6.15;;
20324;SDS011;10320;49.482;11.256;2023-05-07T09:37:58;7.68;;;7.00;;
20324;SDS011;10320;49.482;11.256;2023-05-07T09:40:25;7.30;;;6.50;;
20324;SDS011;10320;49.482;11.256;2023-05-07T09:42:52;6.00;;;5.53;;
20324;SDS011;10320;49.482;11.256;2023-05-07T09:45:22;6.55;;;5.95;;
20324;SDS011;10320;49.482;11.256;2023-05-07T09:47:53;6.88;;;6.20;;
20324;SDS011;10320;49.482;11.256;2023-05-07T09:50:25;7.20;;;6.50;;
20324;SDS011;10320;49.482;11.256;2023-05-07T09:52:56;5.90;;;5.40;;
20324;SDS011;10320;49.482;11.256;2023-05-07T09:55:22;6.28;;;5.75;;
20324;SDS011;10320;49.482;11.256;2023-05-07T09:57:52;6.35;;;5.75;;
20324;SDS011;10320;49.482;11.256;2023-05-07T10:00:19;5.75;;;5.35;;
20324;SDS011;10320;49.482;11.256;2023-05-07T10:02:49;6.25;;;5.65;;
20324;SDS011;10320;49.482;11.256;2023-05-07T10:05:21;5.97;;;5.40;;
20324;SDS011;10320;49.482;11.256;2023-05-07T10:07:47;5.85;;;5.22;;
20324;SDS011;10320;49.482;11.256;2023-05-07T10:10:14;6.10;;;5.40;;
20324;SDS011;10320;49.482;11.256;2023-05-07T10:12:41;6.35;;;5.75;;
20324;SDS011;10320;49.482;11.256;2023-05-07T10:15:07;5.72;;;5.22;;
20324;SDS011;10320;49.482;11.256;2023-05-07T10:17:37;5.95;;;5.45;;
20324;SDS011;10320;49.482;11.256;2023-05-07T10:20:05;5.60;;;5.10;;
20324;SDS011;10320;49.482;11.256;2023-05-07T10:22:33;5.63;;;5.13;;
20324;SDS011;10320;49.482;11.256;2023-05-07T10:25:06;5.53;;;5.13;;
20324;SDS011;10320;49.482;11.256;2023-05-07T10:27:39;5.22;;;4.80;;
20324;SDS011;10320;49.482;11.256;2023-05-07T10:32:53;6.05;;;5.55;;
20324;SDS011;10320;49.482;11.256;2023-05-07T10:35:22;4.75;;;4.35;;
20324;SDS011;10320;49.482;11.256;2023-05-07T10:37:51;4.97;;;4.65;;
20324;SDS011;10320;49.482;11.256;2023-05-07T10:40:17;5.78;;;4.93;;
20324;SDS011;10320;49.482;11.256;2023-05-07T10:42:57;5.45;;;4.80;;
20324;SDS011;10320;49.482;11.256;2023-05-07T10:45:25;5.38;;;4.97;;
20324;SDS011;10320;49.482;11.256;2023-05-07T10:50:43;5.10;;;4.65;;
20324;SDS011;10320;49.482;11.256;2023-05-07T10:58:43;5.10;;;4.70;;
20324;SDS011;10320;49.482;11.256;2023-05-07T11:01:10;4.72;;;4.35;;
20324;SDS011;10320;49.482;11.256;2023-05-07T11:03:37;4.68;;;4.05;;
20324;SDS011;10320;49.482;11.256;2023-05-07T11:06:39;4.55;;;4.15;;
20324;SDS011;10320;49.482;11.256;2023-05-07T11:09:05;4.30;;;3.90;;
20324;SDS011;10320;49.482;11.256;2023-05-07T11:14:44;4.47;;;4.00;;
20324;SDS011;10320;49.482;11.256;2023-05-07T11:17:11;4.30;;;3.90;;
20324;SDS011;10320;49.482;11.256;2023-05-07T11:19:53;4.32;;;4.03;;
20324;SDS011;10320;49.482;11.256;2023-05-07T11:25:04;5.00;;;4.60;;
20324;SDS011;10320;49.482;11.256;2023-05-07T11:27:31;4.90;;;4.50;;
20324;SDS011;10320;49.482;11.256;2023-05-07T11:29:57;4.50;;;4.10;;
20324;SDS011;10320;49.482;11.256;2023-05-07T11:32:30;4.80;;;4.40;;
20324;SDS011;10320;49.482;11.256;2023-05-07T11:34:57;5.05;;;4.13;;
20324;SDS011;10320;49.482;11.256;2023-05-07T11:37:24;4.72;;;4.38;;
20324;SDS011;10320;49.482;11.256;2023-05-07T11:39:50;4.90;;;4.35;;
20324;SDS011;10320;49.482;11.256;2023-05-07T11:44:55;5.25;;;4.85;;
20324;SDS011;10320;49.482;11.256;2023-05-07T11:47:21;4.95;;;4.47;;
20324;SDS011;10320;49.482;11.256;2023-05-07T11:49:47;4.60;;;4.22;;
20324;SDS011;10320;49.482;11.256;2023-05-07T11:52:14;4.88;;;4.32;;
20324;SDS011;10320;49.482;11.256;2023-05-07T11:54:40;4.60;;;4.22;;
20324;SDS011;10320;49.482;11.256;2023-05-07T11:57:06;4.70;;;4.30;;
20324;SDS011;10320;49.482;11.256;2023-05-07T11:59:41;4.65;;;4.25;;
20324;SDS011;10320;49.482;11.256;2023-05-07T12:02:16;4.70;;;4.20;;
20324;SDS011;10320;49.482;11.256;2023-05-07T12:04:42;4.18;;;3.83;;
20324;SDS011;10320;49.482;11.256;2023-05-07T12:07:12;4.13;;;3.83;;
20324;SDS011;10320;49.482;11.256;2023-05-07T12:09:41;4.13;;;3.83;;
20324;SDS011;10320;49.482;11.256;2023-05-07T12:12:08;4.60;;;3.83;;
20324;SDS011;10320;49.482;11.256;2023-05-07T12:14:41;4.38;;;4.03;;
20324;SDS011;10320;49.482;11.256;2023-05-07T12:17:07;4.80;;;4.30;;
20324;SDS011;10320;49.482;11.256;2023-05-07T12:19:33;4.43;;;3.97;;
20324;SDS011;10320;49.482;11.256;2023-05-07T12:22:00;4.88;;;4.13;;
20324;SDS011;10320;49.482;11.256;2023-05-07T12:24:26;4.40;;;4.00;;
20324;SDS011;10320;49.482;11.256;2023-05-07T12:26:52;5.25;;;4.18;;
20324;SDS011;10320;49.482;11.256;2023-05-07T12:29:22;4.70;;;4.30;;
20324;SDS011;10320;49.482;11.256;2023-05-07T12:31:49;4.13;;;3.80;;
20324;SDS011;10320;49.482;11.256;2023-05-07T12:34:15;4.20;;;3.80;;
20324;SDS011;10320;49.482;11.256;2023-05-07T12:36:41;3.90;;;3.60;;
20324;SDS011;10320;49.482;11.256;2023-05-07T12:39:07;4.05;;;3.60;;
20324;SDS011;10320;49.482;11.256;2023-05-07T12:42:16;4.25;;;3.70;;
20324;SDS011;10320;49.482;11.256;2023-05-07T12:44:28;4.43;;;4.03;;
20324;SDS011;10320;49.482;11.256;2023-05-07T12:46:55;4.30;;;3.65;;
20324;SDS011;10320;49.482;11.256;2023-05-07T12:49:21;3.88;;;3.58;;
20324;SDS011;10320;49.482;11.256;2023-05-07T12:51:47;4.30;;;3.92;;
20324;SDS011;10320;49.482;11.256;2023-05-07T12:54:14;5.55;;;4.03;;
20324;SDS011;10320;49.482;11.256;2023-05-07T12:56:41;4.78;;;4.00;;
20324;SDS011;10320;49.482;11.256;2023-05-07T12:59:07;4.05;;;3.75;;
20324;SDS011;10320;49.482;11.256;2023-05-07T13:01:33;4.18;;;3.83;;
20324;SDS011;10320;49.482;11.256;2023-05-07T13:04:03;3.92;;;3.63;;
20324;SDS011;10320;49.482;11.256;2023-05-07T13:06:29;4.18;;;3.72;;
20324;SDS011;10320;49.482;11.256;2023-05-07T13:08:56;4.35;;;3.97;;
20324;SDS011;10320;49.482;11.256;2023-05-07T13:11:21;4.13;;;3.83;;
20324;SDS011;10320;49.482;11.256;2023-05-07T13:13:48;4.30;;;3.90;;
20324;SDS011;10320;49.482;11.256;2023-05-07T13:16:13;3.97;;;3.67;;
20324;SDS011;10320;49.482;11.256;2023-05-07T13:18:40;3.63;;;3.33;;
20324;SDS011;10320;49.482;11.256;2023-05-07T13:21:05;4.40;;;3.72;;
20324;SDS011;10320;49.482;11.256;2023-05-07T13:23:31;4.10;;;3.80;;
20324;SDS011;10320;49.482;11.256;2023-05-07T13:25:57;3.90;;;3.60;;
20324;SDS011;10320;49.482;11.256;2023-05-07T13:28:23;3.90;;;3.60;;
20324;SDS011;10320;49.482;11.256;2023-05-07T13:30:49;3.95;;;3.50;;
20324;SDS011;10320;49.482;11.256;2023-05-07T13:33:16;3.85;;;3.40;;
20324;SDS011;10320;49.482;11.256;2023-05-07T13:35:42;3.55;;;3.25;;
20324;SDS011;10320;49.482;11.256;2023-05-07T13:38:08;3.58;;;3.28;;
20324;SDS011;10320;49.482;11.256;2023-05-07T13:40:33;3.05;;;2.85;;
20324;SDS011;10320;49.482;11.256;2023-05-07T13:42:59;3.65;;;3.40;;
20324;SDS011;10320;49.482;11.256;2023-05-07T13:45:28;3.42;;;3.22;;
20324;SDS011;10320;49.482;11.256;2023-05-07T13:47:54;4.00;;;3.60;;
20324;SDS011;10320;49.482;11.256;2023-05-07T13:50:20;4.53;;;3.58;;
20324;SDS011;10320;49.482;11.256;2023-05-07T13:52:46;3.70;;;3.40;;
20324;SDS011;10320;49.482;11.256;2023-05-07T13:55:20;3.38;;;3.13;;
20324;SDS011;10320;49.482;11.256;2023-05-07T13:57:46;3.85;;;3.50;;
20324;SDS011;10320;49.482;11.256;2023-05-07T14:00:12;3.90;;;3.60;;
20324;SDS011;10320;49.482;11.256;2023-05-07T14:02:41;4.10;;;3.80;;
20324;SDS011;10320;49.482;11.256;2023-05-07T14:05:07;4.30;;;3.90;;
20324;SDS011;10320;49.482;11.256;2023-05-07T14:07:35;4.05;;;3.65;;
20324;SDS011;10320;49.482;11.256;2023-05-07T14:10:01;4.30;;;4.00;;
20324;SDS011;10320;49.482;11.256;2023-05-07T14:12:27;4.35;;;3.95;;
20324;SDS011;10320;49.482;11.256;2023-05-07T14:14:53;4.45;;;4.05;;
20324;SDS011;10320;49.482;11.256;2023-05-07T14:17:19;4.13;;;3.83;;
20324;SDS011;10320;49.482;11.256;2023-05-07T14:19:45;4.90;;;4.38;;
20324;SDS011;10320;49.482;11.256;2023-05-07T14:22:13;4.40;;;4.07;;
20324;SDS011;10320;49.482;11.256;2023-05-07T14:24:40;4.50;;;4.20;;
20324;SDS011;10320;49.482;11.256;2023-05-07T14:27:06;4.40;;;4.10;;
20324;SDS011;10320;49.482;11.256;2023-05-07T14:29:32;4.32;;;4.03;;
20324;SDS011;10320;49.482;11.256;2023-05-07T14:32:00;4.13;;;3.83;;
20324;SDS011;10320;49.482;11.256;2023-05-07T14:34:26;4.28;;;3.97;;
20324;SDS011;10320;49.482;11.256;2023-05-07T14:36:52;3.97;;;3.55;;
20324;SDS011;10320;49.482;11.256;2023-05-07T14:39:18;4.13;;;3.83;;
20324;SDS011;10320;49.482;11.256;2023-05-07T14:41:43;3.90;;;3.58;;
20324;SDS011;10320;49.482;11.256;2023-05-07T14:44:09;4.40;;;4.00;;
20324;SDS011;10320;49.482;11.256;2023-05-07T14:46:37;4.13;;;3.83;;
20324;SDS011;10320;49.482;11.256;2023-05-07T14:49:03;3.78;;;3.47;;
20324;SDS011;10320;49.482;11.256;2023-05-07T14:51:29;3.78;;;3.47;;